Time;durP1;ratioP1;P1;durP2;ratioP2;P2;SDS_P1;SDS_P2;PMS_P1;PMS_P2;Temp;Humidity;BMP_temperature;BMP_pressure;BME280_temperature;BME280_humidity;BME280_pressure;Samples;Min_cycle;Max_cycle;Signal;HPM_P1;HPM_P2
2023/12/13 00:02:11;;;;;;;23.37;17.93;;;3.80;99.90;;;;;;5073109;28;20179;-76
2023/12/13 00:04:37;;;;;;;21.47;17.30;;;3.80;99.90;;;;;;5055510;28;20187;-78
2023/12/13 00:07:03;;;;;;;27.57;18.20;;;3.90;99.90;;;;;;5073492;28;20266;-76
2023/12/13 00:09:29;;;;;;;27.93;18.30;;;3.90;99.90;;;;;;5073429;28;20228;-76
2023/12/13 00:11:55;;;;;;;25.23;17.60;;;3.90;99.90;;;;;;5073361;28;20294;-78
2023/12/13 00:14:22;;;;;;;26.87;17.43;;;3.90;99.90;;;;;;5072974;28;20206;-78
2023/12/13 00:16:48;;;;;;;23.83;17.43;;;4.00;99.90;;;;;;5073803;28;20226;-79
2023/12/13 00:19:14;;;;;;;25.40;17.93;;;4.00;99.90;;;;;;5073967;28;20675;-77
2023/12/13 00:21:39;;;;;;;23.70;17.77;;;4.10;99.90;;;;;;5076183;28;20202;-78
2023/12/13 00:24:06;;;;;;;23.40;16.83;;;4.10;99.90;;;;;;5074558;28;20199;-79
2023/12/13 00:26:31;;;;;;;21.97;17.30;;;4.10;99.90;;;;;;5076037;28;20169;-78
2023/12/13 00:28:57;;;;;;;22.67;16.70;;;4.10;99.90;;;;;;5073712;28;20180;-80
2023/12/13 00:31:23;;;;;;;25.57;16.90;;;4.10;99.90;;;;;;5075177;28;20182;-77
2023/12/13 00:33:49;;;;;;;23.10;16.10;;;4.00;99.90;;;;;;5073020;28;20187;-76
2023/12/13 00:36:15;;;;;;;20.80;15.10;;;4.10;99.90;;;;;;5076748;28;20174;-78
2023/12/13 00:38:41;;;;;;;18.73;14.00;;;4.00;99.90;;;;;;5072405;28;20206;-77
2023/12/13 00:41:07;;;;;;;17.73;14.27;;;4.10;99.90;;;;;;5072923;28;20172;-78
2023/12/13 00:43:32;;;;;;;23.07;14.97;;;4.10;99.90;;;;;;5082595;28;20204;-77
2023/12/13 00:45:58;;;;;;;17.43;13.03;;;4.10;99.90;;;;;;5084168;28;20170;-78
2023/12/13 00:48:24;;;;;;;17.20;12.93;;;4.10;99.90;;;;;;5086474;28;20170;-78
2023/12/13 00:50:50;;;;;;;20.20;13.50;;;4.10;99.90;;;;;;5073451;28;20193;-76
2023/12/13 00:53:16;;;;;;;19.73;13.80;;;4.10;99.90;;;;;;5075122;28;20185;-78
2023/12/13 00:55:41;;;;;;;18.27;12.90;;;4.10;99.90;;;;;;5073324;28;20259;-77
2023/12/13 00:58:07;;;;;;;19.60;14.00;;;4.20;99.90;;;;;;5055286;28;20622;-77
2023/12/13 01:00:33;;;;;;;17.87;13.17;;;4.10;99.90;;;;;;5055785;28;20490;-78
2023/12/13 01:02:59;;;;;;;16.97;11.80;;;4.10;99.90;;;;;;5073102;28;20553;-78
2023/12/13 01:05:24;;;;;;;13.97;10.60;;;4.20;99.90;;;;;;5074341;28;20218;-78
2023/12/13 01:07:50;;;;;;;14.67;10.40;;;4.20;99.90;;;;;;5075040;28;20529;-77
2023/12/13 01:10:16;;;;;;;11.43;8.50;;;4.20;99.90;;;;;;5088756;28;20219;-78
2023/12/13 01:12:42;;;;;;;11.10;7.60;;;4.20;99.90;;;;;;5093028;28;20253;-77
2023/12/13 01:15:11;;;;;;;10.20;7.20;;;4.10;99.90;;;;;;5095197;28;20159;-74
2023/12/13 01:17:37;;;;;;;11.53;6.77;;;4.10;99.90;;;;;;5095703;28;20507;-77
2023/12/13 01:20:06;;;;;;;11.33;7.37;;;4.10;99.90;;;;;;5092670;28;20179;-77
2023/12/13 01:22:32;;;;;;;12.93;7.77;;;4.10;99.90;;;;;;5093181;28;20169;-77
2023/12/13 01:24:58;;;;;;;11.33;7.70;;;4.00;99.90;;;;;;5094165;28;20259;-78
2023/12/13 01:27:24;;;;;;;11.73;8.73;;;4.00;99.90;;;;;;5102084;28;20201;-77
2023/12/13 01:29:49;;;;;;;13.43;10.23;;;4.00;99.90;;;;;;5115502;28;20241;-78
2023/12/13 01:32:15;;;;;;;19.53;14.03;;;4.00;99.90;;;;;;5108480;28;20177;-79
2023/12/13 01:34:41;;;;;;;23.67;13.90;;;3.90;99.90;;;;;;5097514;28;20179;-77
2023/12/13 01:37:06;;;;;;;27.23;17.47;;;3.80;99.90;;;;;;5097601;28;20530;-77
2023/12/13 01:39:32;;;;;;;26.40;17.17;;;3.80;99.90;;;;;;5097039;28;20221;-78
2023/12/13 01:41:58;;;;;;;28.20;18.83;;;3.80;99.90;;;;;;5096630;28;20168;-78
2023/12/13 01:44:24;;;;;;;31.13;20.40;;;3.80;99.90;;;;;;5095510;28;20231;-78
2023/12/13 01:46:50;;;;;;;29.43;20.13;;;3.80;99.90;;;;;;5097040;28;20175;-78
2023/12/13 01:49:17;;;;;;;36.93;21.37;;;3.80;99.90;;;;;;5095027;28;20182;-77
2023/12/13 01:51:44;;;;;;;27.77;21.07;;;3.60;99.90;;;;;;5096964;28;20252;-79
2023/12/13 01:54:14;;;;;;;32.17;21.37;;;3.50;99.90;;;;;;5097699;28;20247;-79
2023/12/13 01:56:42;;;;;;;30.07;21.43;;;3.60;99.90;;;;;;5097355;28;20171;-78
2023/12/13 01:59:09;;;;;;;30.30;20.60;;;3.60;99.90;;;;;;5096102;28;20263;-79
2023/12/13 02:01:35;;;;;;;31.53;21.17;;;3.50;99.90;;;;;;5094982;28;20223;-78
2023/12/13 02:04:02;;;;;;;28.13;20.70;;;3.50;99.90;;;;;;5096711;28;20177;-77
2023/12/13 02:06:29;;;;;;;31.33;21.03;;;3.50;99.90;;;;;;5095493;28;20244;-77
2023/12/13 02:08:54;;;;;;;29.47;21.47;;;3.50;99.90;;;;;;5089409;28;20699;-79
2023/12/13 02:11:20;;;;;;;32.10;21.97;;;3.50;99.90;;;;;;5077592;28;20175;-78
2023/12/13 02:13:47;;;;;;;34.00;20.90;;;3.50;99.90;;;;;;5075470;28;20186;-78
2023/12/13 02:16:13;;;;;;;29.03;20.70;;;3.50;99.90;;;;;;5075802;28;20206;-79
2023/12/13 02:18:38;;;;;;;28.53;20.10;;;3.60;99.90;;;;;;5076529;28;20280;-77
2023/12/13 02:21:05;;;;;;;31.93;21.17;;;3.60;99.90;;;;;;5066500;28;20179;-77
2023/12/13 02:23:31;;;;;;;32.57;22.03;;;3.50;99.90;;;;;;5088243;28;20179;-78
2023/12/13 02:26:00;;;;;;;30.33;21.63;;;3.50;99.90;;;;;;5086357;28;20178;-76
2023/12/13 02:28:27;;;;;;;26.73;20.20;;;3.60;99.90;;;;;;5085034;28;20226;-77
2023/12/13 02:30:54;;;;;;;27.80;19.90;;;3.60;99.90;;;;;;5092041;28;20168;-77
2023/12/13 02:33:27;;;;;;;26.87;19.40;;;3.70;99.90;;;;;;5087575;28;20181;-76
2023/12/13 02:35:54;;;;;;;28.67;20.33;;;3.70;99.90;;;;;;5078660;28;20187;-77
2023/12/13 02:38:20;;;;;;;29.57;20.57;;;3.70;99.90;;;;;;5081001;28;20225;-77
2023/12/13 02:40:46;;;;;;;32.57;20.13;;;3.80;99.90;;;;;;5075617;28;20647;-78
2023/12/13 02:43:12;;;;;;;24.67;18.77;;;3.80;99.90;;;;;;5076044;28;20182;-78
2023/12/13 02:45:38;;;;;;;26.10;19.47;;;3.70;99.90;;;;;;5075780;28;20185;-79
2023/12/13 02:48:04;;;;;;;28.23;19.77;;;3.80;99.90;;;;;;5075609;28;20507;-79
2023/12/13 02:50:30;;;;;;;27.87;19.13;;;3.80;99.90;;;;;;5076492;28;20186;-75
2023/12/13 02:52:56;;;;;;;26.10;19.00;;;3.90;99.90;;;;;;5078921;28;20181;-79
2023/12/13 02:55:22;;;;;;;27.43;19.00;;;3.80;99.90;;;;;;5089597;28;20171;-78
2023/12/13 02:57:47;;;;;;;22.73;16.87;;;3.90;99.90;;;;;;5065244;28;20218;-79
2023/12/13 03:00:13;;;;;;;24.53;19.47;;;3.80;99.90;;;;;;5075893;28;20173;-78
2023/12/13 03:02:42;;;;;;;24.70;17.93;;;3.90;99.90;;;;;;5074659;28;20611;-79
2023/12/13 03:05:08;;;;;;;24.47;18.00;;;3.90;99.90;;;;;;5074850;28;20168;-78
2023/12/13 03:07:34;;;;;;;26.10;17.70;;;3.90;99.90;;;;;;5074729;28;20178;-77
2023/12/13 03:10:01;;;;;;;22.33;15.70;;;3.90;99.90;;;;;;5074445;28;20713;-79
2023/12/13 03:12:26;;;;;;;21.90;17.23;;;4.00;99.90;;;;;;5075410;28;20172;-79
2023/12/13 03:14:52;;;;;;;19.77;13.47;;;4.00;99.90;;;;;;5075748;28;20195;-77
2023/12/13 03:17:18;;;;;;;15.23;12.23;;;4.00;99.90;;;;;;5074772;28;20658;-78
2023/12/13 03:19:43;;;;;;;21.63;13.53;;;4.00;99.90;;;;;;5075075;28;20267;-78
2023/12/13 03:22:11;;;;;;;22.20;15.93;;;4.10;99.90;;;;;;5073881;28;20163;-79
2023/12/13 03:24:36;;;;;;;25.57;18.67;;;4.10;99.90;;;;;;5074134;28;20168;-79
2023/12/13 03:27:02;;;;;;;28.20;18.97;;;4.00;99.90;;;;;;5089666;28;20189;-77
2023/12/13 03:29:28;;;;;;;25.23;19.20;;;3.90;99.90;;;;;;5094034;28;20186;-77
2023/12/13 03:31:54;;;;;;;28.87;19.20;;;3.90;99.90;;;;;;5079890;28;20172;-77
2023/12/13 03:34:20;;;;;;;28.87;19.60;;;3.90;99.90;;;;;;5076575;28;20182;-79
2023/12/13 03:36:46;;;;;;;26.93;19.33;;;3.90;99.90;;;;;;5057858;28;20189;-77
2023/12/13 03:39:12;;;;;;;29.87;20.10;;;3.80;99.90;;;;;;5075364;28;20210;-77
2023/12/13 03:41:38;;;;;;;27.53;20.33;;;3.70;99.90;;;;;;5073876;28;20304;-78
2023/12/13 03:44:04;;;;;;;23.47;18.80;;;3.70;99.90;;;;;;5073489;28;20196;-78
2023/12/13 03:46:29;;;;;;;29.20;18.97;;;3.80;99.90;;;;;;5073806;28;20182;-77
2023/12/13 03:48:55;;;;;;;25.63;19.47;;;3.90;99.90;;;;;;5073075;28;20193;-79
2023/12/13 03:51:21;;;;;;;29.73;20.73;;;3.90;99.90;;;;;;5073145;28;20170;-76
2023/12/13 03:53:47;;;;;;;26.97;19.30;;;3.90;99.90;;;;;;5087937;28;20180;-77
2023/12/13 03:56:13;;;;;;;27.73;18.90;;;4.00;99.90;;;;;;5089792;28;20174;-76
2023/12/13 03:58:39;;;;;;;27.00;20.50;;;4.00;99.90;;;;;;5089660;28;20232;-77
2023/12/13 04:01:05;;;;;;;21.40;18.10;;;4.00;99.90;;;;;;5072462;28;20186;-75
2023/12/13 04:03:33;;;;;;;25.30;19.60;;;3.90;99.90;;;;;;5056147;28;20178;-77
2023/12/13 04:05:59;;;;;;;29.07;19.13;;;3.90;99.90;;;;;;5074071;28;20576;-78
2023/12/13 04:08:24;;;;;;;27.80;19.23;;;4.00;99.90;;;;;;5073605;28;20175;-79
2023/12/13 04:10:50;;;;;;;27.17;18.37;;;3.90;99.90;;;;;;5069099;28;20163;-77
2023/12/13 04:13:16;;;;;;;23.57;19.00;;;3.90;99.90;;;;;;5082749;28;20202;-76
2023/12/13 04:15:42;;;;;;;25.03;18.37;;;3.80;99.90;;;;;;5073972;28;20218;-77
2023/12/13 04:18:08;;;;;;;25.97;18.20;;;3.80;99.90;;;;;;5073125;28;20271;-79
2023/12/13 04:20:34;;;;;;;21.40;17.67;;;3.80;99.90;;;;;;5055292;28;20717;-80
2023/12/13 04:22:59;;;;;;;23.67;17.47;;;3.80;99.90;;;;;;5073743;28;20179;-79
2023/12/13 04:25:25;;;;;;;22.50;18.00;;;3.80;99.90;;;;;;5073523;28;20248;-78
2023/12/13 04:27:51;;;;;;;23.67;16.97;;;3.70;99.90;;;;;;5073528;28;20182;-77
2023/12/13 04:30:17;;;;;;;22.17;16.93;;;3.70;99.90;;;;;;5074078;28;20172;-75
2023/12/13 04:32:42;;;;;;;26.97;17.63;;;3.70;99.90;;;;;;5075739;28;20178;-75
2023/12/13 04:35:09;;;;;;;21.87;17.40;;;3.60;99.90;;;;;;5075678;28;20166;-78
2023/12/13 04:37:36;;;;;;;20.87;16.70;;;3.70;99.90;;;;;;5073459;28;20193;-78
2023/12/13 04:40:03;;;;;;;22.97;16.90;;;3.70;99.90;;;;;;5073332;28;20198;-79
2023/12/13 04:42:28;;;;;;;25.13;17.17;;;3.70;99.90;;;;;;5073818;28;20654;-77
2023/12/13 04:44:54;;;;;;;22.27;17.03;;;3.80;99.90;;;;;;5074196;28;20178;-79
2023/12/13 04:47:20;;;;;;;24.67;16.87;;;3.90;99.90;;;;;;5073205;28;20172;-77
2023/12/13 04:49:46;;;;;;;22.57;16.30;;;3.40;99.90;;;;;;5077866;28;20186;-77
2023/12/13 04:52:12;;;;;;;22.03;16.77;;;4.00;99.90;;;;;;5068646;28;20265;-77
2023/12/13 04:54:38;;;;;;;20.90;14.87;;;4.00;99.90;;;;;;5087906;28;20227;-79
2023/12/13 04:57:04;;;;;;;21.50;16.40;;;4.00;99.90;;;;;;5079868;28;20658;-80
2023/12/13 04:59:30;;;;;;;23.53;16.87;;;3.90;99.90;;;;;;5056265;28;20260;-79
2023/12/13 05:01:56;;;;;;;22.30;15.50;;;3.90;99.90;;;;;;5076775;28;20215;-77
2023/12/13 05:04:22;;;;;;;21.73;15.33;;;3.90;99.90;;;;;;5077263;28;20258;-74
2023/12/13 05:06:48;;;;;;;20.93;16.30;;;3.90;99.90;;;;;;5078605;28;20163;-77
2023/12/13 05:09:14;;;;;;;25.47;16.50;;;3.90;99.90;;;;;;5082105;28;20241;-79
2023/12/13 05:11:40;;;;;;;23.80;17.63;;;3.90;99.90;;;;;;5078728;28;20170;-77
2023/12/13 05:14:06;;;;;;;24.70;17.23;;;4.00;99.90;;;;;;5077240;28;20182;-79
2023/12/13 05:16:32;;;;;;;25.67;17.30;;;3.90;99.90;;;;;;5076937;28;20654;-76
2023/12/13 05:18:57;;;;;;;25.97;16.93;;;3.90;99.90;;;;;;5077168;28;20330;-76
2023/12/13 05:21:23;;;;;;;22.00;16.23;;;3.90;99.90;;;;;;5077826;28;20201;-78
2023/12/13 05:23:49;;;;;;;23.77;17.40;;;3.90;99.90;;;;;;5085580;28;20246;-76
2023/12/13 05:26:15;;;;;;;23.03;17.30;;;3.80;99.90;;;;;;5086789;28;20699;-78
2023/12/13 05:28:40;;;;;;;25.07;18.00;;;3.80;99.90;;;;;;5078159;28;20205;-79
2023/12/13 05:31:06;;;;;;;23.20;16.80;;;3.80;99.90;;;;;;5081494;28;20175;-76
2023/12/13 05:33:32;;;;;;;21.53;17.83;;;3.70;99.90;;;;;;5087109;28;20176;-76
2023/12/13 05:35:58;;;;;;;21.73;16.00;;;3.70;99.90;;;;;;5091344;28;20179;-78
2023/12/13 05:38:23;;;;;;;21.60;17.03;;;3.70;99.90;;;;;;5077718;28;20293;-77
2023/12/13 05:40:49;;;;;;;22.80;16.60;;;3.80;99.90;;;;;;5058464;28;20620;-79
2023/12/13 05:43:15;;;;;;;21.27;16.00;;;3.70;99.90;;;;;;5079068;28;20699;-76
2023/12/13 05:45:41;;;;;;;22.60;16.70;;;3.50;99.90;;;;;;5096294;28;20181;-76
2023/12/13 05:48:07;;;;;;;23.60;16.67;;;3.50;99.90;;;;;;5060719;28;20657;-77
2023/12/13 05:50:32;;;;;;;23.80;16.33;;;3.60;99.90;;;;;;5077181;28;20336;-78
2023/12/13 05:52:58;;;;;;;20.70;15.83;;;3.60;99.90;;;;;;5076354;28;20187;-79
2023/12/13 05:55:24;;;;;;;20.43;16.27;;;3.70;99.90;;;;;;5058102;28;20181;-79
2023/12/13 05:57:50;;;;;;;21.97;16.87;;;3.70;99.90;;;;;;5075918;28;20208;-79
2023/12/13 06:00:16;;;;;;;26.43;16.10;;;3.80;99.90;;;;;;5042283;28;20190;-79
2023/12/13 06:02:42;;;;;;;26.87;17.00;;;3.80;99.90;;;;;;5059015;28;20193;-77
2023/12/13 06:05:08;;;;;;;28.27;16.60;;;3.70;99.90;;;;;;5075946;28;20180;-77
2023/12/13 06:07:34;;;;;;;27.03;16.70;;;3.60;99.90;;;;;;5075545;28;20178;-78
2023/12/13 06:10:00;;;;;;;26.23;15.57;;;3.70;99.90;;;;;;5075967;28;20688;-78
2023/12/13 06:12:26;;;;;;;21.47;15.63;;;3.70;99.90;;;;;;5076179;28;20210;-77
2023/12/13 06:14:53;;;;;;;28.20;16.97;;;3.70;99.90;;;;;;5077065;28;20323;-75
2023/12/13 06:17:19;;;;;;;23.97;15.00;;;3.70;99.90;;;;;;5083294;28;20196;-79
2023/12/13 06:19:44;;;;;;;22.33;15.80;;;3.80;99.90;;;;;;5077449;28;20213;-78
2023/12/13 06:22:11;;;;;;;22.30;15.10;;;3.80;99.90;;;;;;5075612;28;20200;-79
2023/12/13 06:24:37;;;;;;;23.60;15.30;;;3.80;99.90;;;;;;5075920;28;20189;-75
2023/12/13 06:27:03;;;;;;;20.20;15.57;;;3.80;99.90;;;;;;5060705;28;20179;-78
2023/12/13 06:29:29;;;;;;;20.97;15.03;;;3.80;99.90;;;;;;5075971;28;20174;-75
2023/12/13 06:31:55;;;;;;;21.93;16.00;;;3.80;99.90;;;;;;5059178;28;20230;-77
2023/12/13 06:34:20;;;;;;;22.00;15.27;;;3.80;99.90;;;;;;5056877;28;20636;-80
2023/12/13 06:36:46;;;;;;;19.63;13.93;;;3.90;99.90;;;;;;5041601;28;20181;-79
2023/12/13 06:39:12;;;;;;;18.53;13.80;;;3.90;99.90;;;;;;5075487;28;20201;-77
2023/12/13 06:41:41;;;;;;;20.70;14.33;;;3.90;99.90;;;;;;5075823;28;20170;-79
2023/12/13 06:44:07;;;;;;;21.03;15.10;;;3.80;99.90;;;;;;5075303;28;20213;-80
2023/12/13 06:46:33;;;;;;;20.47;14.83;;;3.80;99.90;;;;;;5075470;28;20173;-78
2023/12/13 06:48:59;;;;;;;19.57;14.47;;;3.90;99.90;;;;;;5075845;28;20182;-77
2023/12/13 06:51:25;;;;;;;20.10;13.77;;;3.90;99.90;;;;;;5074859;28;20181;-78
2023/12/13 06:53:51;;;;;;;17.10;13.40;;;3.90;99.90;;;;;;5076635;28;20215;-76
2023/12/13 06:56:18;;;;;;;19.93;13.67;;;3.90;99.90;;;;;;5076769;28;20255;-79
2023/12/13 06:58:44;;;;;;;23.27;14.67;;;4.00;99.90;;;;;;5058357;28;20689;-79
2023/12/13 07:01:10;;;;;;;25.97;14.83;;;4.00;99.90;;;;;;5076377;28;20177;-77
2023/12/13 07:03:36;;;;;;;24.67;14.93;;;4.10;99.90;;;;;;5057359;28;20273;-77
2023/12/13 07:06:04;;;;;;;23.47;14.37;;;4.20;99.90;;;;;;5076805;28;20175;-77
2023/12/13 07:08:29;;;;;;;17.20;13.43;;;4.30;99.90;;;;;;5058778;28;20252;-77
2023/12/13 07:10:55;;;;;;;21.13;13.73;;;4.20;99.90;;;;;;5081605;28;20229;-76
2023/12/13 07:13:21;;;;;;;19.73;14.23;;;4.20;99.90;;;;;;5088077;28;20172;-77
2023/12/13 07:15:47;;;;;;;17.57;13.33;;;4.20;99.90;;;;;;5077790;28;20253;-77
2023/12/13 07:18:12;;;;;;;20.97;13.30;;;4.20;99.90;;;;;;5091545;28;20238;-78
2023/12/13 07:20:38;;;;;;;17.20;13.17;;;4.20;99.90;;;;;;5088155;28;20202;-75
2023/12/13 07:23:05;;;;;;;19.00;14.17;;;4.20;99.90;;;;;;5081135;28;20182;-77
2023/12/13 07:25:31;;;;;;;20.40;14.73;;;4.20;99.90;;;;;;5085014;28;20178;-79
2023/12/13 07:27:57;;;;;;;28.23;15.50;;;4.30;99.90;;;;;;5057569;28;20267;-80
2023/12/13 07:30:25;;;;;;;21.17;15.20;;;4.30;99.90;;;;;;5075860;28;20218;-75
2023/12/13 07:32:53;;;;;;;20.73;15.10;;;4.40;99.90;;;;;;5059336;28;20308;-75
2023/12/13 07:35:19;;;;;;;20.70;13.93;;;4.30;99.90;;;;;;5083663;28;20554;-78
2023/12/13 07:37:45;;;;;;;16.13;12.83;;;4.40;99.90;;;;;;5085734;28;20175;-78
2023/12/13 07:40:11;;;;;;;19.63;13.83;;;4.50;99.90;;;;;;5090443;28;20172;-79
2023/12/13 07:42:37;;;;;;;17.57;13.07;;;4.50;99.90;;;;;;5076410;28;20286;-78
2023/12/13 07:45:03;;;;;;;19.27;13.30;;;4.50;99.90;;;;;;5075454;28;20187;-78
2023/12/13 07:47:29;;;;;;;18.50;13.30;;;4.50;99.90;;;;;;5056416;28;20642;-80
2023/12/13 07:49:55;;;;;;;18.83;12.57;;;4.60;99.90;;;;;;5056361;28;20192;-78
2023/12/13 07:52:21;;;;;;;18.73;14.33;;;4.50;99.90;;;;;;5074026;28;20177;-80
2023/12/13 07:54:48;;;;;;;18.80;13.67;;;4.50;99.90;;;;;;5074213;28;20171;-74
2023/12/13 07:57:14;;;;;;;24.47;14.83;;;4.60;99.90;;;;;;5074539;28;20168;-80
2023/12/13 07:59:41;;;;;;;21.67;15.47;;;4.60;99.90;;;;;;5073673;28;20211;-78
2023/12/13 08:02:07;;;;;;;23.87;16.80;;;4.60;99.90;;;;;;5056616;28;20209;-79
2023/12/13 08:04:32;;;;;;;23.97;16.27;;;4.50;99.90;;;;;;5073975;28;20180;-78
2023/12/13 08:06:58;;;;;;;23.47;15.73;;;4.50;99.90;;;;;;5074513;28;20180;-79
2023/12/13 08:09:24;;;;;;;21.37;15.87;;;4.40;99.90;;;;;;5074384;28;20225;-79
2023/12/13 08:11:51;;;;;;;19.70;13.60;;;4.40;99.90;;;;;;5074511;28;20181;-79
2023/12/13 08:14:17;;;;;;;20.00;14.03;;;4.40;99.90;;;;;;5073868;28;20166;-76
2023/12/13 08:16:43;;;;;;;20.30;13.67;;;4.50;99.90;;;;;;5073693;28;20593;-75
2023/12/13 08:19:09;;;;;;;18.63;13.37;;;4.60;99.90;;;;;;5073563;28;20305;-79
2023/12/13 08:21:40;;;;;;;17.97;12.63;;;4.50;99.90;;;;;;5074007;28;20174;-79
2023/12/13 08:24:10;;;;;;;14.93;12.00;;;4.60;99.90;;;;;;5074023;28;20598;-76
2023/12/13 08:26:36;;;;;;;14.53;11.90;;;4.60;99.90;;;;;;5073720;28;20225;-79
2023/12/13 08:29:01;;;;;;;14.73;11.33;;;4.60;99.90;;;;;;5055937;28;20188;-78
2023/12/13 08:31:27;;;;;;;15.53;11.93;;;4.70;99.90;;;;;;5073406;28;20189;-78
2023/12/13 08:33:53;;;;;;;16.43;11.60;;;4.70;99.90;;;;;;5073574;28;20174;-79
2023/12/13 08:36:19;;;;;;;13.47;10.57;;;4.70;99.90;;;;;;5073676;28;20184;-79
2023/12/13 08:38:45;;;;;;;15.17;10.23;;;4.70;99.90;;;;;;5056508;28;20616;-77
2023/12/13 08:41:13;;;;;;;15.20;11.67;;;4.80;99.90;;;;;;5074034;28;20179;-80
2023/12/13 08:43:39;;;;;;;16.23;11.07;;;4.70;99.90;;;;;;5073622;28;20634;-79
2023/12/13 08:46:05;;;;;;;13.73;10.80;;;4.80;99.90;;;;;;5073814;28;20220;-78
2023/12/13 08:48:31;;;;;;;14.07;11.37;;;4.90;99.90;;;;;;5073565;28;20185;-77
2023/12/13 08:50:58;;;;;;;14.50;11.83;;;4.90;99.90;;;;;;5088813;28;20180;-77
2023/12/13 08:53:24;;;;;;;17.07;11.37;;;5.00;99.90;;;;;;5077772;28;20592;-79
2023/12/13 08:55:50;;;;;;;14.07;11.50;;;5.00;99.90;;;;;;5073170;28;20175;-77
2023/12/13 08:58:16;;;;;;;12.97;10.90;;;5.10;99.90;;;;;;5073473;28;20195;-79
2023/12/13 09:00:42;;;;;;;14.50;10.93;;;5.10;99.90;;;;;;5072949;28;20179;-76
2023/12/13 09:03:08;;;;;;;17.90;11.00;;;5.20;99.90;;;;;;5073416;28;20189;-77
2023/12/13 09:05:37;;;;;;;17.47;12.13;;;5.20;99.90;;;;;;5073731;28;20191;-78
2023/12/13 09:08:05;;;;;;;14.37;10.47;;;5.20;99.90;;;;;;5073807;28;20187;-79
2023/12/13 09:10:34;;;;;;;14.47;11.70;;;5.20;99.90;;;;;;5073544;28;20698;-79
2023/12/13 09:13:04;;;;;;;12.40;10.47;;;5.20;99.90;;;;;;5078981;28;20215;-79
2023/12/13 09:15:31;;;;;;;11.97;10.17;;;5.10;99.90;;;;;;5074037;28;20248;-80
2023/12/13 09:17:57;;;;;;;14.87;9.97;;;5.20;99.90;;;;;;5055996;28;20178;-78
2023/12/13 09:20:23;;;;;;;16.23;10.83;;;5.20;99.90;;;;;;5073478;28;20646;-77
2023/12/13 09:22:49;;;;;;;11.67;10.17;;;5.20;99.90;;;;;;5082218;28;20172;-76
2023/12/13 09:25:16;;;;;;;12.23;10.03;;;5.20;99.90;;;;;;5079094;28;20183;-77
2023/12/13 09:27:43;;;;;;;12.70;9.93;;;5.20;99.90;;;;;;5073296;28;20176;-78
2023/12/13 09:30:09;;;;;;;11.90;9.40;;;5.30;99.90;;;;;;5072717;28;20176;-79
2023/12/13 09:32:35;;;;;;;14.70;10.00;;;5.30;99.90;;;;;;5081228;28;20177;-78
2023/12/13 09:35:02;;;;;;;12.37;10.10;;;5.30;99.90;;;;;;5078816;28;20166;-78
2023/12/13 09:37:28;;;;;;;11.87;9.90;;;5.30;99.90;;;;;;5072625;28;20188;-77
2023/12/13 09:39:54;;;;;;;13.17;10.50;;;5.30;99.90;;;;;;5072443;28;20745;-76
2023/12/13 09:42:19;;;;;;;14.33;10.77;;;5.30;99.90;;;;;;5055186;28;20173;-76
2023/12/13 09:44:49;;;;;;;12.20;10.53;;;5.20;99.90;;;;;;5055883;28;20223;-76
2023/12/13 09:47:16;;;;;;;12.07;10.50;;;5.20;99.90;;;;;;5075837;28;20652;-75
2023/12/13 09:49:43;;;;;;;13.90;10.33;;;5.20;99.90;;;;;;5062904;28;20199;-76
2023/12/13 09:52:10;;;;;;;15.73;10.53;;;5.20;99.90;;;;;;5078936;28;20183;-77
2023/12/13 09:54:41;;;;;;;11.20;9.97;;;5.20;99.90;;;;;;5059246;28;20223;-79
2023/12/13 09:57:07;;;;;;;11.90;10.60;;;5.10;99.90;;;;;;5076696;28;20178;-77
2023/12/13 09:59:33;;;;;;;17.43;12.97;;;5.10;99.90;;;;;;5076419;28;20216;-77
2023/12/13 10:01:59;;;;;;;25.10;14.63;;;5.10;99.90;;;;;;5076121;28;20262;-77
2023/12/13 10:04:29;;;;;;;24.83;18.07;;;4.90;99.90;;;;;;5076376;28;20173;-76
2023/12/13 10:06:56;;;;;;;30.53;20.57;;;4.90;99.90;;;;;;5076769;28;20157;-75
2023/12/13 10:09:27;;;;;;;21.80;17.00;;;4.80;99.90;;;;;;5076581;28;20577;-77
2023/12/13 10:11:55;;;;;;;24.60;17.87;;;4.80;99.90;;;;;;5078048;28;20644;-79
2023/12/13 10:14:21;;;;;;;26.47;17.27;;;4.90;99.90;;;;;;5075919;28;20179;-79
2023/12/13 10:16:46;;;;;;;24.37;16.93;;;5.00;99.90;;;;;;5077262;28;20168;-77
2023/12/13 10:19:12;;;;;;;25.07;17.70;;;5.10;99.90;;;;;;5080806;28;20237;-76
2023/12/13 10:21:38;;;;;;;23.20;17.57;;;5.10;99.90;;;;;;5076364;28;20561;-77
2023/12/13 10:24:07;;;;;;;22.03;16.80;;;5.00;99.90;;;;;;5093023;28;20188;-77
2023/12/13 10:26:36;;;;;;;23.47;17.20;;;5.00;99.90;;;;;;5079554;28;20731;-76
2023/12/13 10:29:03;;;;;;;20.63;16.40;;;5.00;99.90;;;;;;5095026;28;20152;-77
2023/12/13 10:31:30;;;;;;;21.87;16.93;;;5.10;99.90;;;;;;5083346;28;20184;-79
2023/12/13 10:33:56;;;;;;;22.83;17.33;;;5.10;99.90;;;;;;5075706;28;20192;-77
2023/12/13 10:36:28;;;;;;;23.93;17.13;;;5.20;99.90;;;;;;5057414;28;20209;-75
2023/12/13 10:38:54;;;;;;;23.97;17.77;;;5.30;99.90;;;;;;5074839;28;20204;-78
2023/12/13 10:41:27;;;;;;;33.27;18.90;;;5.30;99.90;;;;;;5075807;28;20167;-78
2023/12/13 10:43:55;;;;;;;26.93;19.13;;;5.40;99.90;;;;;;5075803;28;20665;-78
2023/12/13 10:46:22;;;;;;;23.83;17.73;;;5.60;99.90;;;;;;5075724;28;20256;-77
2023/12/13 10:48:48;;;;;;;24.73;17.60;;;5.70;99.90;;;;;;5080794;28;20180;-77
2023/12/13 10:51:17;;;;;;;30.27;17.53;;;5.60;99.90;;;;;;5074939;28;20184;-76
2023/12/13 10:53:44;;;;;;;23.00;17.63;;;5.40;99.90;;;;;;5056755;28;20180;-77
2023/12/13 10:56:12;;;;;;;24.40;17.47;;;5.30;99.90;;;;;;5075992;28;20229;-78
2023/12/13 10:58:38;;;;;;;28.43;20.60;;;5.30;99.90;;;;;;5074521;28;20254;-74
2023/12/13 11:01:05;;;;;;;28.33;19.33;;;5.20;99.90;;;;;;5075843;28;20273;-78
2023/12/13 11:03:37;;;;;;;30.50;19.43;;;5.20;99.90;;;;;;5075559;28;20168;-79
2023/12/13 11:06:07;;;;;;;30.63;20.23;;;5.20;99.90;;;;;;5075358;28;20283;-79
2023/12/13 11:08:40;;;;;;;27.00;19.10;;;5.20;99.90;;;;;;5074886;28;20232;-79
2023/12/13 11:11:14;;;;;;;32.47;20.13;;;5.20;99.90;;;;;;5075303;28;20259;-78
2023/12/13 11:13:52;;;;;;;29.90;19.53;;;5.10;99.90;;;;;;5075216;28;20888;-77
2023/12/13 11:16:23;;;;;;;30.37;20.23;;;5.10;99.90;;;;;;5074970;28;20171;-77
2023/12/13 11:18:52;;;;;;;33.67;21.43;;;5.10;99.90;;;;;;5074353;28;20204;-74
2023/12/13 11:21:30;;;;;;;31.00;20.93;;;5.10;99.90;;;;;;5078752;28;20167;-74
2023/12/13 11:24:00;;;;;;;31.60;20.17;;;5.10;99.90;;;;;;5086469;28;20164;-77
2023/12/13 11:26:32;;;;;;;35.50;20.60;;;5.10;99.90;;;;;;5082011;28;20193;-78
2023/12/13 11:28:59;;;;;;;33.73;21.07;;;5.10;99.90;;;;;;5075707;28;20203;-77
2023/12/13 11:31:26;;;;;;;33.27;21.13;;;5.10;99.90;;;;;;5074406;28;20172;-76
2023/12/13 11:33:56;;;;;;;29.97;20.53;;;5.00;99.90;;;;;;5073699;28;20173;-75
2023/12/13 11:36:25;;;;;;;30.63;19.90;;;5.00;99.90;;;;;;5075000;28;20168;-77
2023/12/13 11:38:56;;;;;;;28.57;20.67;;;5.00;99.90;;;;;;5074718;28;20203;-75
2023/12/13 11:41:22;;;;;;;30.00;20.80;;;5.00;99.90;;;;;;5074277;28;20241;-79
2023/12/13 11:43:51;;;;;;;31.10;20.27;;;5.00;99.90;;;;;;5074228;28;20531;-79
2023/12/13 11:46:17;;;;;;;26.77;20.20;;;5.00;99.90;;;;;;5074381;28;20631;-78
2023/12/13 11:48:43;;;;;;;25.70;19.17;;;5.00;99.90;;;;;;5077481;28;20174;-79
2023/12/13 11:51:09;;;;;;;27.47;18.47;;;5.00;99.90;;;;;;5074384;28;20167;-78
2023/12/13 11:53:35;;;;;;;29.50;19.30;;;4.90;99.90;;;;;;5074346;28;20165;-79
2023/12/13 11:56:07;;;;;;;24.93;18.60;;;4.90;99.90;;;;;;5074693;28;20161;-77
2023/12/13 11:58:33;;;;;;;26.60;18.40;;;4.90;99.90;;;;;;5063240;28;20298;-78
2023/12/13 12:00:59;;;;;;;28.23;20.23;;;5.00;99.90;;;;;;5076901;28;20203;-78
2023/12/13 12:03:25;;;;;;;30.27;19.77;;;4.90;99.90;;;;;;5074575;28;20177;-75
2023/12/13 12:05:51;;;;;;;25.47;18.87;;;4.80;99.90;;;;;;5080940;28;20179;-76
2023/12/13 12:08:24;;;;;;;30.13;20.30;;;4.90;99.90;;;;;;5078605;28;20200;-76
2023/12/13 12:10:51;;;;;;;29.60;19.10;;;4.90;99.90;;;;;;5080289;28;20155;-77
2023/12/13 12:13:19;;;;;;;25.50;20.40;;;5.00;99.90;;;;;;5077311;28;20173;-77
2023/12/13 12:15:45;;;;;;;25.70;18.33;;;5.00;99.90;;;;;;5073133;28;20527;-75
2023/12/13 12:18:14;;;;;;;27.20;20.30;;;5.00;99.90;;;;;;5065603;28;20165;-76
2023/12/13 12:20:41;;;;;;;27.07;19.03;;;5.10;99.90;;;;;;5078667;28;20184;-77
2023/12/13 12:23:08;;;;;;;30.10;20.43;;;5.10;99.90;;;;;;5074945;28;20302;-78
2023/12/13 12:25:34;;;;;;;25.47;19.40;;;5.10;99.90;;;;;;5073399;28;20175;-77
2023/12/13 12:28:01;;;;;;;29.80;19.00;;;5.10;99.90;;;;;;5073141;28;20256;-76
2023/12/13 12:30:26;;;;;;;27.23;19.13;;;5.10;99.90;;;;;;5073817;28;20213;-77
2023/12/13 12:32:52;;;;;;;26.67;19.20;;;5.10;99.90;;;;;;5073279;28;20184;-76
2023/12/13 12:35:18;;;;;;;29.67;19.30;;;5.10;99.90;;;;;;5084191;28;20191;-79